ENT4029 EPWA-DTNH
Flight info
| Callsign | ENT4029 |
|---|---|
| Flight time | N/A |
| Altitude | 36000 |
| Route | EVINA DCT NAVUR N744 TUSIN DCT MIKOV DCT INSAX/N0451F380 DCT PETOV DCT XAMIT/N0450F370 DCT PININ DCT TUNEX UM738 CBN G727 ATLEL ATLEL1W |
| Aircraft | B38M/M-SDFGHIJ1J4J7RWXY/EB1 |
Departure
| Time | 2026-05-08 07:53 |
|---|---|
| Airport | Warsaw Chopin Airport (EPWA) |
Arrival
| Time | N/A |
|---|---|
| Airport | Enfidha - Hammamet International Airport (DTNH) |
| Time | Latitude | Longitude | Altitude | Speed | Heading |
|---|---|---|---|---|---|
| 2026-05-08 07:32 | 52.15802 | 20.97996 | 367 ft | 0 kts | 114° |
| 2026-05-08 07:50 | 52.15802 | 20.97997 | 366 ft | 0 kts | 114° |
| 2026-05-08 07:50 | 52.15795 | 20.98021 | 366 ft | 4 kts | 114° |
| 2026-05-08 07:50 | 52.15781 | 20.98081 | 366 ft | 6 kts | 96° |
| 2026-05-08 07:50 | 52.15809 | 20.98154 | 366 ft | 9 kts | 34° |
| 2026-05-08 07:51 | 52.15877 | 20.98207 | 366 ft | 12 kts | 24° |
| 2026-05-08 07:51 | 52.15965 | 20.98271 | 366 ft | 15 kts | 24° |
| 2026-05-08 07:51 | 52.16060 | 20.98340 | 366 ft | 11 kts | 22° |
| 2026-05-08 07:51 | 52.16127 | 20.98284 | 366 ft | 16 kts | 299° |
| 2026-05-08 07:52 | 52.16235 | 20.97918 | 366 ft | 66 kts | 295° |
| 2026-05-08 07:52 | 52.16523 | 20.96897 | 366 ft | 124 kts | 294° |
| 2026-05-08 07:52 | 52.16969 | 20.95312 | 372 ft | 168 kts | 295° |
| 2026-05-08 07:52 | 52.17448 | 20.93558 | 936 ft | 168 kts | 295° |
| 2026-05-08 07:53 | 52.17944 | 20.91753 | 1461 ft | 175 kts | 295° |
| 2026-05-08 07:53 | 52.18382 | 20.89901 | 2032 ft | 175 kts | 284° |
| 2026-05-08 07:53 | 52.18325 | 20.87805 | 2304 ft | 195 kts | 253° |
| 2026-05-08 07:53 | 52.17724 | 20.85782 | 2557 ft | 215 kts | 230° |
| 2026-05-08 07:54 | 52.16451 | 20.84379 | 2879 ft | 232 kts | 206° |
| 2026-05-08 07:54 | 52.14924 | 20.83177 | 3256 ft | 247 kts | 208° |
| 2026-05-08 07:54 | 52.13374 | 20.81853 | 3659 ft | 261 kts | 209° |
| 2026-05-08 07:54 | 52.11697 | 20.80382 | 4234 ft | 267 kts | 210° |
| 2026-05-08 07:55 | 52.10084 | 20.78963 | 4889 ft | 269 kts | 210° |
| 2026-05-08 07:55 | 52.08443 | 20.77521 | 5542 ft | 270 kts | 210° |
| 2026-05-08 07:55 | 52.06795 | 20.76073 | 6189 ft | 273 kts | 211° |
| 2026-05-08 07:55 | 52.05116 | 20.74597 | 6853 ft | 275 kts | 211° |
| 2026-05-08 07:56 | 52.03407 | 20.73097 | 7559 ft | 276 kts | 210° |
| 2026-05-08 07:56 | 52.01724 | 20.71621 | 8228 ft | 278 kts | 210° |
| 2026-05-08 07:56 | 52.00000 | 20.70111 | 8921 ft | 280 kts | 210° |
| 2026-05-08 07:56 | 51.98289 | 20.68613 | 9592 ft | 282 kts | 210° |
| 2026-05-08 07:57 | 51.96566 | 20.67109 | 10287 ft | 284 kts | 210° |
| 2026-05-08 07:57 | 51.94751 | 20.65519 | 10667 ft | 299 kts | 210° |
| 2026-05-08 07:57 | 51.92907 | 20.63912 | 11260 ft | 305 kts | 210° |
| 2026-05-08 07:57 | 51.91059 | 20.62303 | 11942 ft | 308 kts | 210° |
| 2026-05-08 07:58 | 51.89166 | 20.60649 | 12622 ft | 311 kts | 210° |
| 2026-05-08 07:58 | 51.87262 | 20.58992 | 13308 ft | 314 kts | 210° |
| 2026-05-08 07:58 | 51.85358 | 20.57330 | 14007 ft | 316 kts | 210° |
| 2026-05-08 07:58 | 51.83425 | 20.55637 | 14744 ft | 317 kts | 210° |
| 2026-05-08 07:59 | 51.81495 | 20.53957 | 15445 ft | 320 kts | 209° |
| 2026-05-08 07:59 | 51.79548 | 20.52263 | 16170 ft | 321 kts | 209° |
| 2026-05-08 07:59 | 51.77533 | 20.50512 | 16853 ft | 324 kts | 209° |
| 2026-05-08 07:59 | 51.75508 | 20.48750 | 17593 ft | 325 kts | 208° |
| 2026-05-08 08:00 | 51.73488 | 20.46994 | 18270 ft | 326 kts | 208° |
| 2026-05-08 08:00 | 51.71449 | 20.45227 | 18889 ft | 330 kts | 208° |
| 2026-05-08 08:00 | 51.69384 | 20.43442 | 19529 ft | 332 kts | 208° |
| 2026-05-08 08:00 | 51.67284 | 20.41721 | 20126 ft | 335 kts | 204° |
| 2026-05-08 08:01 | 51.65077 | 20.40362 | 20718 ft | 338 kts | 195° |
| 2026-05-08 08:01 | 51.62789 | 20.39607 | 21286 ft | 340 kts | 188° |
| 2026-05-08 08:01 | 51.60345 | 20.39177 | 21882 ft | 342 kts | 185° |
| 2026-05-08 08:01 | 51.57887 | 20.38812 | 22454 ft | 345 kts | 185° |
| 2026-05-08 08:02 | 51.55448 | 20.38453 | 23032 ft | 346 kts | 185° |
| 2026-05-08 08:02 | 51.52993 | 20.38090 | 23549 ft | 349 kts | 185° |
| 2026-05-08 08:02 | 51.50532 | 20.37725 | 24032 ft | 352 kts | 185° |
| 2026-05-08 08:02 | 51.48074 | 20.37371 | 24514 ft | 354 kts | 184° |
| 2026-05-08 08:03 | 51.45633 | 20.37039 | 24985 ft | 356 kts | 185° |
| 2026-05-08 08:03 | 51.43193 | 20.36677 | 25446 ft | 357 kts | 186° |
| 2026-05-08 08:03 | 51.40717 | 20.35938 | 25856 ft | 361 kts | 195° |
| 2026-05-08 08:03 | 51.38380 | 20.34615 | 26283 ft | 365 kts | 202° |
| 2026-05-08 08:04 | 51.36106 | 20.32706 | 26611 ft | 371 kts | 210° |
| 2026-05-08 08:04 | 51.34006 | 20.30343 | 27031 ft | 374 kts | 214° |
| 2026-05-08 08:04 | 51.31956 | 20.27811 | 27552 ft | 373 kts | 216° |
| 2026-05-08 08:04 | 51.29894 | 20.25259 | 27997 ft | 373 kts | 215° |
| 2026-05-08 08:05 | 51.27709 | 20.22622 | 28283 ft | 378 kts | 215° |
| 2026-05-08 08:05 | 51.25539 | 20.20021 | 28689 ft | 379 kts | 215° |
| 2026-05-08 08:05 | 51.23423 | 20.17487 | 29080 ft | 381 kts | 215° |
| 2026-05-08 08:05 | 51.21218 | 20.14849 | 29419 ft | 383 kts | 215° |
| 2026-05-08 08:06 | 51.19005 | 20.12203 | 29764 ft | 386 kts | 215° |
| 2026-05-08 08:06 | 51.16763 | 20.09524 | 30105 ft | 388 kts | 215° |
| 2026-05-08 08:06 | 51.14529 | 20.06858 | 30430 ft | 390 kts | 216° |
| 2026-05-08 08:06 | 51.12320 | 20.04229 | 30705 ft | 393 kts | 216° |
| 2026-05-08 08:07 | 51.10103 | 20.01590 | 30958 ft | 395 kts | 216° |
| 2026-05-08 08:07 | 51.07875 | 19.98942 | 31181 ft | 397 kts | 216° |
| 2026-05-08 08:07 | 51.05662 | 19.96313 | 31406 ft | 399 kts | 216° |
| 2026-05-08 08:07 | 51.03435 | 19.93669 | 31680 ft | 400 kts | 216° |
| 2026-05-08 08:08 | 51.01162 | 19.90974 | 31851 ft | 403 kts | 216° |
| 2026-05-08 08:08 | 50.98908 | 19.88306 | 32130 ft | 403 kts | 216° |
| 2026-05-08 08:08 | 50.96648 | 19.85635 | 32298 ft | 407 kts | 217° |
| 2026-05-08 08:08 | 50.94371 | 19.82947 | 32523 ft | 408 kts | 217° |
| 2026-05-08 08:09 | 50.92090 | 19.80257 | 32720 ft | 410 kts | 217° |
| 2026-05-08 08:09 | 50.89789 | 19.77546 | 32922 ft | 411 kts | 217° |
| 2026-05-08 08:09 | 50.87496 | 19.74849 | 33120 ft | 413 kts | 217° |
| 2026-05-08 08:09 | 50.85190 | 19.72140 | 33332 ft | 415 kts | 217° |
| 2026-05-08 08:10 | 50.82860 | 19.69406 | 33499 ft | 417 kts | 217° |
| 2026-05-08 08:10 | 50.80500 | 19.66641 | 33743 ft | 418 kts | 217° |
| 2026-05-08 08:10 | 50.78166 | 19.63909 | 33961 ft | 419 kts | 217° |
| 2026-05-08 08:10 | 50.75795 | 19.61136 | 34182 ft | 421 kts | 217° |
| 2026-05-08 08:11 | 50.73436 | 19.58382 | 34412 ft | 422 kts | 218° |
| 2026-05-08 08:11 | 50.71073 | 19.55627 | 34682 ft | 422 kts | 218° |
| 2026-05-08 08:11 | 50.68697 | 19.52861 | 34872 ft | 424 kts | 218° |
| 2026-05-08 08:11 | 50.66309 | 19.50083 | 35035 ft | 426 kts | 218° |
| 2026-05-08 08:12 | 50.63892 | 19.47276 | 35272 ft | 427 kts | 218° |
| 2026-05-08 08:12 | 50.61452 | 19.44446 | 35507 ft | 427 kts | 218° |
| 2026-05-08 08:12 | 50.59016 | 19.41624 | 35794 ft | 425 kts | 218° |
| 2026-05-08 08:12 | 50.56564 | 19.38787 | 36006 ft | 426 kts | 218° |
| 2026-05-08 08:13 | 50.54104 | 19.35943 | 36072 ft | 428 kts | 218° |
| 2026-05-08 08:13 | 50.49144 | 19.30223 | 36084 ft | 427 kts | 217° |
| 2026-05-08 08:14 | 50.44185 | 19.24521 | 36086 ft | 424 kts | 217° |
| 2026-05-08 08:14 | 50.39265 | 19.18877 | 36088 ft | 424 kts | 217° |
| 2026-05-08 08:15 | 50.34340 | 19.13243 | 36085 ft | 425 kts | 217° |
| 2026-05-08 08:15 | 50.29430 | 19.07641 | 36090 ft | 425 kts | 217° |
| 2026-05-08 08:16 | 50.24556 | 19.02095 | 36087 ft | 424 kts | 218° |
| 2026-05-08 08:16 | 50.19682 | 18.96562 | 36091 ft | 425 kts | 218° |
| 2026-05-08 08:17 | 50.14841 | 18.91080 | 36090 ft | 425 kts | 218° |
| 2026-05-08 08:17 | 50.09998 | 18.85613 | 36094 ft | 424 kts | 218° |
| 2026-05-08 08:18 | 50.05151 | 18.80153 | 36093 ft | 425 kts | 218° |
| 2026-05-08 08:18 | 50.00382 | 18.74795 | 36091 ft | 424 kts | 218° |
| 2026-05-08 08:19 | 49.95614 | 18.69451 | 36086 ft | 423 kts | 218° |
| 2026-05-08 08:19 | 49.90866 | 18.64144 | 36099 ft | 423 kts | 218° |
| 2026-05-08 08:20 | 49.86197 | 18.58646 | 36086 ft | 420 kts | 224° |
| 2026-05-08 08:20 | 49.82135 | 18.52204 | 36098 ft | 418 kts | 231° |
| 2026-05-08 08:21 | 49.78437 | 18.45358 | 36089 ft | 417 kts | 233° |
| 2026-05-08 08:21 | 49.74759 | 18.38371 | 36095 ft | 419 kts | 233° |
| 2026-05-08 08:22 | 49.71090 | 18.31428 | 36102 ft | 418 kts | 232° |
| 2026-05-08 08:22 | 49.67433 | 18.24533 | 36088 ft | 417 kts | 232° |
| 2026-05-08 08:23 | 49.63759 | 18.17621 | 36090 ft | 417 kts | 232° |
| 2026-05-08 08:23 | 49.60090 | 18.10739 | 36092 ft | 416 kts | 232° |
| 2026-05-08 08:24 | 49.56444 | 18.03922 | 36092 ft | 415 kts | 232° |
| 2026-05-08 08:24 | 49.52770 | 17.97065 | 36080 ft | 415 kts | 232° |
| 2026-05-08 08:25 | 49.49102 | 17.90238 | 36097 ft | 415 kts | 233° |
| 2026-05-08 08:25 | 49.45434 | 17.83431 | 36091 ft | 414 kts | 233° |
| 2026-05-08 08:26 | 49.41788 | 17.76681 | 36086 ft | 414 kts | 233° |
| 2026-05-08 08:26 | 49.38104 | 17.69877 | 36082 ft | 414 kts | 233° |
| 2026-05-08 08:27 | 49.34445 | 17.63139 | 36082 ft | 414 kts | 233° |
| 2026-05-08 08:27 | 49.30785 | 17.56413 | 36095 ft | 413 kts | 233° |
| 2026-05-08 08:28 | 49.27123 | 17.49703 | 36081 ft | 412 kts | 233° |
| 2026-05-08 08:28 | 49.23468 | 17.43026 | 36078 ft | 411 kts | 233° |
| 2026-05-08 08:29 | 49.19783 | 17.36307 | 36083 ft | 411 kts | 233° |
| 2026-05-08 08:29 | 49.16135 | 17.29672 | 36075 ft | 410 kts | 232° |
| 2026-05-08 08:30 | 49.12466 | 17.23018 | 35996 ft | 408 kts | 232° |
| 2026-05-08 08:30 | 49.06924 | 17.12992 | 36094 ft | 417 kts | 232° |
| 2026-05-08 08:31 | 49.03209 | 17.06300 | 36083 ft | 413 kts | 232° |
| 2026-05-08 08:31 | 48.99514 | 16.99662 | 36097 ft | 413 kts | 232° |
| 2026-05-08 08:32 | 48.95822 | 16.93040 | 36091 ft | 411 kts | 232° |
| 2026-05-08 08:32 | 48.92145 | 16.86461 | 36077 ft | 410 kts | 232° |
| 2026-05-08 08:33 | 48.88440 | 16.79848 | 36081 ft | 411 kts | 232° |
| 2026-05-08 08:33 | 48.84757 | 16.73293 | 36089 ft | 411 kts | 232° |
| 2026-05-08 08:34 | 48.80931 | 16.66854 | 36076 ft | 413 kts | 226° |
| 2026-05-08 08:34 | 48.76083 | 16.62122 | 36093 ft | 424 kts | 208° |
| 2026-05-08 08:35 | 48.70437 | 16.59439 | 36073 ft | 428 kts | 198° |
| 2026-05-08 08:35 | 48.64607 | 16.57632 | 36091 ft | 430 kts | 197° |
| 2026-05-08 08:36 | 48.58779 | 16.55867 | 36073 ft | 428 kts | 197° |
| 2026-05-08 08:36 | 48.52965 | 16.54073 | 36078 ft | 428 kts | 197° |
| 2026-05-08 08:37 | 48.47173 | 16.52275 | 36078 ft | 428 kts | 197° |
| 2026-05-08 08:37 | 48.41319 | 16.50454 | 36084 ft | 429 kts | 197° |
| 2026-05-08 08:38 | 48.35496 | 16.48646 | 36084 ft | 427 kts | 197° |
| 2026-05-08 08:38 | 48.29699 | 16.46849 | 36095 ft | 427 kts | 197° |
| 2026-05-08 08:39 | 48.23919 | 16.45060 | 36090 ft | 426 kts | 197° |
| 2026-05-08 08:39 | 48.18133 | 16.43273 | 36084 ft | 425 kts | 197° |
| 2026-05-08 08:40 | 48.12319 | 16.41480 | 36094 ft | 426 kts | 198° |
| 2026-05-08 08:40 | 48.06552 | 16.39706 | 36096 ft | 425 kts | 197° |
| 2026-05-08 08:41 | 48.00766 | 16.37930 | 36099 ft | 425 kts | 198° |
| 2026-05-08 08:41 | 47.95000 | 16.36164 | 36088 ft | 424 kts | 197° |
| 2026-05-08 08:42 | 47.89230 | 16.34404 | 36081 ft | 424 kts | 197° |
| 2026-05-08 08:42 | 47.83438 | 16.32640 | 36096 ft | 425 kts | 197° |
| 2026-05-08 08:43 | 47.77677 | 16.30889 | 36090 ft | 422 kts | 197° |
| 2026-05-08 08:43 | 47.71963 | 16.29155 | 36090 ft | 422 kts | 197° |
| 2026-05-08 08:44 | 47.66195 | 16.27407 | 36082 ft | 422 kts | 197° |
| 2026-05-08 08:44 | 47.60451 | 16.25672 | 36093 ft | 422 kts | 197° |
| 2026-05-08 08:45 | 47.54743 | 16.23951 | 36077 ft | 421 kts | 197° |
| 2026-05-08 08:45 | 47.49003 | 16.22224 | 36084 ft | 420 kts | 197° |
| 2026-05-08 08:46 | 47.43339 | 16.20524 | 36088 ft | 419 kts | 197° |
| 2026-05-08 08:46 | 47.37611 | 16.18807 | 36078 ft | 419 kts | 197° |
| 2026-05-08 08:47 | 47.31906 | 16.17104 | 36093 ft | 419 kts | 197° |
| 2026-05-08 08:47 | 47.26231 | 16.15416 | 36077 ft | 417 kts | 197° |
| 2026-05-08 08:48 | 47.20551 | 16.13726 | 36087 ft | 419 kts | 197° |
| 2026-05-08 08:48 | 47.14829 | 16.12027 | 36086 ft | 419 kts | 197° |
| 2026-05-08 08:49 | 47.09181 | 16.10356 | 36085 ft | 417 kts | 197° |
| 2026-05-08 08:49 | 47.03500 | 16.08678 | 36082 ft | 415 kts | 197° |
| 2026-05-08 08:50 | 46.97784 | 16.07367 | 36081 ft | 419 kts | 192° |
| 2026-05-08 08:50 | 46.91987 | 16.06559 | 36080 ft | 419 kts | 191° |
| 2026-05-08 08:51 | 46.86192 | 16.05749 | 36080 ft | 419 kts | 192° |
| 2026-05-08 08:51 | 46.80404 | 16.04908 | 36080 ft | 420 kts | 191° |
| 2026-05-08 08:52 | 46.74601 | 16.04057 | 36082 ft | 420 kts | 191° |
| 2026-05-08 08:52 | 46.68804 | 16.03202 | 36082 ft | 420 kts | 191° |
| 2026-05-08 08:53 | 46.63023 | 16.02348 | 36085 ft | 419 kts | 191° |
| 2026-05-08 08:53 | 46.57209 | 16.01491 | 36083 ft | 419 kts | 191° |
| 2026-05-08 08:54 | 46.51404 | 16.00635 | 36086 ft | 419 kts | 191° |
| 2026-05-08 08:54 | 46.45629 | 15.99785 | 36084 ft | 418 kts | 191° |
| 2026-05-08 08:55 | 46.39857 | 15.98935 | 36086 ft | 420 kts | 191° |
| 2026-05-08 08:55 | 46.34035 | 15.98076 | 36087 ft | 420 kts | 192° |
| 2026-05-08 08:56 | 46.28366 | 15.96468 | 36088 ft | 416 kts | 199° |
| 2026-05-08 08:56 | 46.22808 | 15.94250 | 36083 ft | 414 kts | 200° |
| 2026-05-08 08:57 | 46.17324 | 15.91989 | 36084 ft | 413 kts | 200° |
| 2026-05-08 08:57 | 46.11807 | 15.89715 | 36087 ft | 413 kts | 200° |
| 2026-05-08 08:58 | 46.06287 | 15.87443 | 36088 ft | 413 kts | 200° |
| 2026-05-08 08:58 | 46.00786 | 15.85182 | 36087 ft | 413 kts | 200° |
| 2026-05-08 08:59 | 45.95148 | 15.82871 | 36085 ft | 412 kts | 200° |
| 2026-05-08 08:59 | 45.89405 | 15.80520 | 36084 ft | 412 kts | 200° |
| 2026-05-08 09:00 | 45.83745 | 15.78209 | 36084 ft | 412 kts | 200° |
| 2026-05-08 09:00 | 45.78026 | 15.75876 | 36085 ft | 412 kts | 200° |
| 2026-05-08 09:01 | 45.72504 | 15.73630 | 36083 ft | 412 kts | 200° |
| 2026-05-08 09:01 | 45.66927 | 15.71366 | 36083 ft | 411 kts | 200° |
| 2026-05-08 09:02 | 45.61436 | 15.69139 | 36081 ft | 413 kts | 200° |
| 2026-05-08 09:02 | 45.55956 | 15.66927 | 36080 ft | 411 kts | 200° |
| 2026-05-08 09:03 | 45.50460 | 15.64716 | 36078 ft | 410 kts | 200° |
| 2026-05-08 09:03 | 45.44974 | 15.62519 | 36075 ft | 410 kts | 200° |
| 2026-05-08 09:04 | 45.39504 | 15.60320 | 36076 ft | 409 kts | 200° |
| 2026-05-08 09:04 | 45.34050 | 15.58129 | 36076 ft | 410 kts | 200° |
| 2026-05-08 09:05 | 45.28552 | 15.55921 | 36074 ft | 410 kts | 200° |
| 2026-05-08 09:05 | 45.23089 | 15.53741 | 36078 ft | 409 kts | 200° |
| 2026-05-08 09:06 | 45.17605 | 15.51553 | 36076 ft | 410 kts | 200° |
| 2026-05-08 09:06 | 45.12146 | 15.49385 | 36074 ft | 410 kts | 199° |
| 2026-05-08 09:07 | 45.06509 | 15.47152 | 36072 ft | 410 kts | 199° |
| 2026-05-08 09:07 | 45.00759 | 15.44880 | 36071 ft | 410 kts | 199° |
| 2026-05-08 09:08 | 44.95045 | 15.42621 | 36070 ft | 410 kts | 199° |
| 2026-05-08 09:08 | 44.89367 | 15.40382 | 36073 ft | 410 kts | 199° |
| 2026-05-08 09:09 | 44.83883 | 15.38222 | 36069 ft | 412 kts | 199° |
| 2026-05-08 09:09 | 44.78316 | 15.36036 | 36066 ft | 411 kts | 199° |
| 2026-05-08 09:10 | 44.72632 | 15.33808 | 36063 ft | 412 kts | 198° |
| 2026-05-08 09:10 | 44.67101 | 15.31638 | 36068 ft | 412 kts | 198° |
| 2026-05-08 09:11 | 44.61548 | 15.29475 | 36065 ft | 412 kts | 198° |
| 2026-05-08 09:11 | 44.55984 | 15.27306 | 36059 ft | 412 kts | 198° |
| 2026-05-08 09:12 | 44.50321 | 15.25111 | 36061 ft | 412 kts | 198° |
| 2026-05-08 09:12 | 44.44577 | 15.22881 | 36054 ft | 412 kts | 198° |
| 2026-05-08 09:13 | 44.38833 | 15.20656 | 36038 ft | 414 kts | 197° |
| 2026-05-08 09:13 | 44.33026 | 15.18424 | 36031 ft | 414 kts | 198° |
| 2026-05-08 09:14 | 44.27237 | 15.16186 | 36019 ft | 413 kts | 198° |
| 2026-05-08 09:14 | 44.21481 | 15.13963 | 36021 ft | 413 kts | 198° |
| 2026-05-08 09:15 | 44.15673 | 15.11730 | 36018 ft | 414 kts | 198° |
| 2026-05-08 09:15 | 44.09904 | 15.09522 | 36011 ft | 415 kts | 198° |
| 2026-05-08 09:16 | 44.04227 | 15.07350 | 36013 ft | 416 kts | 197° |
| 2026-05-08 09:16 | 43.98579 | 15.05194 | 36011 ft | 415 kts | 197° |
| 2026-05-08 09:17 | 43.92828 | 15.03004 | 36009 ft | 416 kts | 197° |
| 2026-05-08 09:17 | 43.87012 | 15.00793 | 36006 ft | 415 kts | 197° |